Time;durP1;ratioP1;P1;durP2;ratioP2;P2;SDS_P1;SDS_P2;PMS_P1;PMS_P2;Temp;Humidity;BMP_temperature;BMP_pressure;BME280_temperature;BME280_humidity;BME280_pressure;Samples;Min_cycle;Max_cycle;Signal;HPM_P1;HPM_P2
2022/05/30 00:02:00;;;;;;;2.53;2.33;;;10.20;99.90;;;;;;5035087;28;20625;-46
2022/05/30 00:04:27;;;;;;;3.00;2.70;;;10.10;99.90;;;;;;5034203;28;20205;-45
2022/05/30 00:06:54;;;;;;;3.17;2.83;;;10.10;99.90;;;;;;5034135;28;20249;-46
2022/05/30 00:09:21;;;;;;;2.37;2.10;;;10.10;99.90;;;;;;5034805;28;20250;-45
2022/05/30 00:11:51;;;;;;;3.10;3.00;;;10.20;99.90;;;;;;5034644;28;20217;-45
2022/05/30 00:14:18;;;;;;;2.17;2.07;;;10.10;99.90;;;;;;5034899;28;20211;-46
2022/05/30 00:16:45;;;;;;;2.30;2.20;;;10.20;99.90;;;;;;5034102;28;20208;-46
2022/05/30 00:19:14;;;;;;;3.47;2.07;;;10.20;99.90;;;;;;5034754;28;20259;-45
2022/05/30 00:21:41;;;;;;;2.40;2.20;;;10.20;99.90;;;;;;5033598;28;20205;-46
2022/05/30 00:24:09;;;;;;;1.80;1.80;;;10.10;99.90;;;;;;5034573;28;20193;-45
2022/05/30 00:26:36;;;;;;;1.60;1.60;;;10.10;99.90;;;;;;5034115;28;20272;-46
2022/05/30 00:29:04;;;;;;;1.80;1.70;;;10.10;99.90;;;;;;5034477;28;20203;-46
2022/05/30 00:31:32;;;;;;;2.50;2.00;;;10.10;99.90;;;;;;5034214;28;20769;-46
2022/05/30 00:33:59;;;;;;;1.90;1.80;;;10.10;99.90;;;;;;5034550;28;20693;-45
2022/05/30 00:36:26;;;;;;;2.27;2.17;;;10.10;99.90;;;;;;5033649;28;20267;-46
2022/05/30 00:38:55;;;;;;;2.00;1.87;;;10.00;99.90;;;;;;5033827;28;20276;-45
2022/05/30 00:41:22;;;;;;;1.37;1.37;;;10.00;99.90;;;;;;5034055;28;20307;-46
2022/05/30 00:43:50;;;;;;;2.17;2.07;;;10.00;99.90;;;;;;5034540;28;20196;-46
2022/05/30 00:46:18;;;;;;;1.97;1.97;;;9.90;99.90;;;;;;5033777;28;20251;-46
2022/05/30 00:48:48;;;;;;;2.27;2.03;;;9.90;99.90;;;;;;5034722;28;20264;-46
2022/05/30 00:51:19;;;;;;;2.47;2.17;;;9.90;99.90;;;;;;5033991;28;20286;-45
2022/05/30 00:53:48;;;;;;;1.90;1.80;;;9.90;99.90;;;;;;5034408;28;20272;-45
2022/05/30 00:56:16;;;;;;;3.57;1.90;;;9.90;99.90;;;;;;5031936;28;20292;-46
2022/05/30 00:58:48;;;;;;;2.40;2.30;;;9.90;99.90;;;;;;5034039;28;20261;-45
2022/05/30 01:01:16;;;;;;;2.80;2.30;;;9.90;99.90;;;;;;5033755;28;20280;-46
2022/05/30 01:06:34;;;;;;;2.40;2.30;;;9.90;99.90;;;;;;5033317;28;20689;-45
2022/05/30 01:09:06;;;;;;;2.63;2.27;;;9.80;99.90;;;;;;5034014;28;20204;-46
2022/05/30 01:11:51;;;;;;;2.83;2.47;;;9.80;99.90;;;;;;5033650;28;20785;-45
2022/05/30 01:14:18;;;;;;;2.17;1.97;;;9.80;99.90;;;;;;5032821;28;20205;-45
2022/05/30 01:16:46;;;;;;;2.33;2.23;;;9.80;99.90;;;;;;5033863;28;20194;-46
2022/05/30 01:19:24;;;;;;;1.87;1.87;;;9.80;99.90;;;;;;5033012;28;20270;-46
2022/05/30 01:22:09;;;;;;;2.47;2.37;;;9.70;99.90;;;;;;5033429;28;20253;-46
2022/05/30 01:24:46;;;;;;;1.97;1.93;;;9.60;99.90;;;;;;5033945;28;20271;-45
2022/05/30 01:27:27;;;;;;;2.47;2.27;;;9.50;99.90;;;;;;5033954;28;20204;-45
2022/05/30 01:29:59;;;;;;;1.80;1.73;;;9.40;99.90;;;;;;5031148;28;20224;-46
2022/05/30 01:32:26;;;;;;;4.03;3.13;;;9.40;99.90;;;;;;5032106;28;20228;-46
2022/05/30 01:34:53;;;;;;;2.80;2.17;;;9.30;99.90;;;;;;5033366;28;20252;-45
2022/05/30 01:37:20;;;;;;;2.60;2.40;;;9.30;99.90;;;;;;5033700;28;20260;-46
2022/05/30 01:39:48;;;;;;;2.67;2.57;;;9.30;99.90;;;;;;5032383;28;20223;-45
2022/05/30 01:42:16;;;;;;;2.77;2.50;;;9.30;99.90;;;;;;5032272;28;20190;-45
2022/05/30 01:44:43;;;;;;;2.93;2.73;;;9.30;99.90;;;;;;5033231;28;20247;-45
2022/05/30 01:47:11;;;;;;;2.40;2.17;;;9.30;99.90;;;;;;5033165;28;20645;-45
2022/05/30 01:49:38;;;;;;;2.73;2.63;;;9.30;99.90;;;;;;5032467;28;20271;-45
2022/05/30 01:52:06;;;;;;;2.37;2.27;;;9.20;99.90;;;;;;5032728;28;20702;-45
2022/05/30 01:54:34;;;;;;;2.53;2.20;;;9.20;99.90;;;;;;5031255;28;20262;-45
2022/05/30 01:57:04;;;;;;;2.60;2.60;;;9.20;99.90;;;;;;5032903;28;20200;-45
2022/05/30 02:01:59;;;;;;;3.43;2.10;;;9.10;99.90;;;;;;5092256;22;20231;-51
2022/05/30 02:04:28;;;;;;;2.40;2.30;;;9.10;99.90;;;;;;5073329;28;20251;-51
2022/05/30 02:06:55;;;;;;;2.33;2.20;;;9.10;99.90;;;;;;5069136;28;20245;-51
2022/05/30 02:09:23;;;;;;;2.37;2.27;;;9.10;99.90;;;;;;5065108;28;20720;-51
2022/05/30 02:11:50;;;;;;;2.67;2.57;;;9.10;99.90;;;;;;5091396;28;20233;-51
2022/05/30 02:14:17;;;;;;;2.73;2.63;;;9.00;99.90;;;;;;5092949;28;20231;-51
2022/05/30 02:17:00;;;;;;;2.40;2.20;;;9.00;99.90;;;;;;5093141;28;20208;-51
2022/05/30 02:19:28;;;;;;;2.57;2.47;;;9.00;99.90;;;;;;5091660;28;20203;-51
2022/05/30 02:22:00;;;;;;;2.50;2.40;;;9.00;99.90;;;;;;5092432;28;20703;-51
2022/05/30 02:24:27;;;;;;;3.37;2.53;;;9.00;99.90;;;;;;5086743;28;20305;-51
2022/05/30 02:26:54;;;;;;;2.30;2.20;;;9.00;99.90;;;;;;5090434;28;20316;-51
2022/05/30 02:29:22;;;;;;;3.03;2.83;;;9.00;99.90;;;;;;5092172;28;20203;-51
2022/05/30 02:31:49;;;;;;;3.43;3.23;;;9.00;99.90;;;;;;5091464;28;20226;-51
2022/05/30 02:37:02;;;;;;;3.23;3.00;;;8.90;99.90;;;;;;5092634;28;20676;-51
2022/05/30 02:39:30;;;;;;;3.67;3.47;;;9.00;99.90;;;;;;5092477;28;20254;-51
2022/05/30 02:41:58;;;;;;;2.77;2.57;;;8.90;99.90;;;;;;5088954;28;20576;-51
2022/05/30 02:44:26;;;;;;;3.53;2.67;;;9.00;99.90;;;;;;5091588;28;20203;-51
2022/05/30 02:46:57;;;;;;;2.93;2.83;;;9.00;99.90;;;;;;5092317;28;20211;-51
2022/05/30 02:49:25;;;;;;;2.53;2.33;;;9.00;99.90;;;;;;5092330;28;20778;-51
2022/05/30 02:51:53;;;;;;;3.20;2.30;;;9.00;99.90;;;;;;5091856;28;20279;-51
2022/05/30 02:54:21;;;;;;;4.00;2.20;;;9.10;99.90;;;;;;5092399;28;20230;-51
2022/05/30 02:56:50;;;;;;;2.87;2.77;;;9.10;99.90;;;;;;5091578;28;20257;-51
2022/05/30 02:59:18;;;;;;;2.37;2.27;;;9.10;99.90;;;;;;5091546;28;20290;-51
2022/05/30 03:01:45;;;;;;;2.60;2.50;;;9.10;99.90;;;;;;5091210;28;20713;-51
2022/05/30 03:04:12;;;;;;;2.37;2.27;;;9.10;99.90;;;;;;5091199;28;20660;-51
2022/05/30 03:06:40;;;;;;;2.23;2.20;;;9.00;99.90;;;;;;5087069;28;20616;-51
2022/05/30 03:09:07;;;;;;;2.17;2.13;;;9.10;99.90;;;;;;5089815;28;20260;-49
2022/05/30 03:11:36;;;;;;;2.40;2.30;;;9.00;99.90;;;;;;5091727;28;20629;-50
2022/05/30 03:14:04;;;;;;;2.50;2.40;;;8.90;99.90;;;;;;5091921;28;20226;-50
2022/05/30 03:16:31;;;;;;;2.77;2.67;;;8.90;99.90;;;;;;5091013;28;20252;-50
2022/05/30 03:18:58;;;;;;;3.20;2.97;;;8.90;99.90;;;;;;5090087;28;20256;-50
2022/05/30 03:21:25;;;;;;;2.83;2.63;;;8.90;99.90;;;;;;5091258;28;20272;-49
2022/05/30 03:23:53;;;;;;;2.73;2.63;;;8.90;99.90;;;;;;5091393;28;20192;-50
2022/05/30 03:26:20;;;;;;;2.97;2.80;;;8.90;99.90;;;;;;5091635;28;20275;-50
2022/05/30 03:28:49;;;;;;;2.67;2.57;;;8.80;99.90;;;;;;5085349;28;20271;-50
2022/05/30 03:31:16;;;;;;;3.03;2.93;;;8.80;99.90;;;;;;5080165;28;20261;-50
2022/05/30 03:33:43;;;;;;;3.87;3.67;;;8.70;99.90;;;;;;5073684;28;20762;-49
2022/05/30 03:36:16;;;;;;;4.93;3.53;;;8.70;99.90;;;;;;5081331;28;20190;-49
2022/05/30 03:38:43;;;;;;;3.37;2.90;;;8.70;99.90;;;;;;5071880;28;20257;-50
2022/05/30 03:41:10;;;;;;;2.87;2.77;;;8.70;99.90;;;;;;5082886;28;20249;-49
2022/05/30 03:43:37;;;;;;;5.47;3.90;;;8.70;99.90;;;;;;5071503;28;20583;-50
2022/05/30 03:46:06;;;;;;;3.63;3.33;;;8.70;99.90;;;;;;5093980;28;20250;-50
2022/05/30 03:48:33;;;;;;;2.97;2.87;;;8.70;99.90;;;;;;5074938;28;20249;-49
2022/05/30 03:51:03;;;;;;;3.07;2.87;;;8.90;99.90;;;;;;5086771;28;20217;-51
2022/05/30 03:53:30;;;;;;;3.50;3.23;;;8.80;99.90;;;;;;5076295;28;20296;-50
2022/05/30 03:55:57;;;;;;;3.70;3.50;;;8.80;99.90;;;;;;5072101;28;20243;-49
2022/05/30 03:58:24;;;;;;;3.60;3.37;;;8.80;99.90;;;;;;5086117;28;20199;-50
2022/05/30 04:00:51;;;;;;;3.73;3.63;;;8.90;99.90;;;;;;5084366;28;20281;-49
2022/05/30 04:03:20;;;;;;;3.50;3.30;;;8.90;99.90;;;;;;5085984;28;20205;-49
2022/05/30 04:05:47;;;;;;;3.67;2.97;;;8.90;99.90;;;;;;5074885;28;20230;-50
2022/05/30 04:08:14;;;;;;;3.67;3.37;;;8.90;99.90;;;;;;5077248;28;20289;-49
2022/05/30 04:10:41;;;;;;;3.60;3.43;;;8.90;99.90;;;;;;5092370;28;20777;-49
2022/05/30 04:13:10;;;;;;;3.20;3.07;;;8.90;99.90;;;;;;5087419;28;20219;-50
2022/05/30 04:15:37;;;;;;;2.90;2.63;;;9.00;99.90;;;;;;5083425;28;20232;-50
2022/05/30 04:18:06;;;;;;;2.97;2.83;;;9.00;99.90;;;;;;5083640;28;20206;-49
2022/05/30 04:20:35;;;;;;;3.73;2.93;;;9.10;99.90;;;;;;5081647;28;20222;-49
2022/05/30 04:23:02;;;;;;;3.13;2.87;;;9.10;99.90;;;;;;5081250;28;20201;-50
2022/05/30 04:25:29;;;;;;;2.90;2.70;;;9.10;99.90;;;;;;5083320;28;20198;-49
2022/05/30 04:27:56;;;;;;;2.40;2.30;;;9.20;99.90;;;;;;5082439;28;20301;-50
2022/05/30 04:30:23;;;;;;;1.80;1.70;;;9.30;99.90;;;;;;5075173;28;20257;-56
2022/05/30 04:32:50;;;;;;;1.47;1.47;;;9.40;99.90;;;;;;5077233;28;20206;-49
2022/05/30 04:35:18;;;;;;;1.87;1.77;;;9.40;99.90;;;;;;5084500;28;20722;-50
2022/05/30 04:37:47;;;;;;;1.70;1.60;;;9.40;99.90;;;;;;5078541;28;20243;-50
2022/05/30 04:40:17;;;;;;;1.50;1.43;;;9.50;99.90;;;;;;5079097;28;20212;-50
2022/05/30 04:42:45;;;;;;;1.63;1.63;;;9.60;99.90;;;;;;5077083;28;20199;-50
2022/05/30 04:45:14;;;;;;;1.67;1.53;;;9.70;99.90;;;;;;5075346;28;20281;-50
2022/05/30 04:47:41;;;;;;;1.30;1.30;;;9.90;99.90;;;;;;5086957;28;20272;-49
2022/05/30 04:50:14;;;;;;;1.17;1.07;;;10.20;99.90;;;;;;5078094;28;20273;-49
2022/05/30 04:52:41;;;;;;;1.27;1.17;;;10.40;99.90;;;;;;5075011;28;20575;-50
2022/05/30 04:55:11;;;;;;;0.70;0.70;;;10.40;99.90;;;;;;5073356;28;20250;-50
2022/05/30 04:57:42;;;;;;;2.00;0.90;;;10.60;99.90;;;;;;5073330;28;20196;-49
2022/05/30 05:00:10;;;;;;;1.70;0.83;;;11.00;99.90;;;;;;5086086;28;20230;-49
2022/05/30 05:02:37;;;;;;;1.53;0.73;;;11.20;99.90;;;;;;5076705;28;20888;-49
2022/05/30 05:05:05;;;;;;;2.33;0.40;;;11.80;99.90;;;;;;5081984;28;20203;-50
2022/05/30 05:07:40;;;;;;;0.50;0.50;;;12.70;99.90;;;;;;5075449;28;20253;-50
2022/05/30 05:10:33;;;;;;;0.53;0.53;;;13.60;99.90;;;;;;5087244;28;20217;-50
2022/05/30 05:13:00;;;;;;;0.40;0.40;;;14.50;99.90;;;;;;5085466;28;20207;-49
2022/05/30 05:15:27;;;;;;;0.40;0.40;;;15.30;99.90;;;;;;5081569;28;20287;-50
2022/05/30 05:17:55;;;;;;;0.47;0.40;;;16.40;99.90;;;;;;5072500;28;20685;-50
2022/05/30 05:20:23;;;;;;;1.03;0.60;;;17.10;99.90;;;;;;5073053;28;20713;-50
2022/05/30 05:22:50;;;;;;;1.03;0.40;;;17.30;99.90;;;;;;5077905;28;20643;-50
2022/05/30 05:25:18;;;;;;;0.50;0.50;;;17.80;99.90;;;;;;5080375;28;20188;-50
2022/05/30 05:27:48;;;;;;;2.93;0.63;;;18.50;99.90;;;;;;5093154;28;20283;-50
2022/05/30 05:30:15;;;;;;;2.50;0.60;;;18.50;99.90;;;;;;5091394;28;20285;-50
2022/05/30 05:32:42;;;;;;;0.73;0.73;;;19.00;99.90;;;;;;5092679;28;20193;-50
2022/05/30 05:35:10;;;;;;;0.60;0.60;;;19.10;99.90;;;;;;5072912;28;20225;-50
2022/05/30 05:37:37;;;;;;;0.73;0.73;;;19.70;99.90;;;;;;5075923;28;20250;-50
2022/05/30 05:40:04;;;;;;;1.13;0.73;;;20.20;99.90;;;;;;5089874;28;20277;-50
2022/05/30 05:42:31;;;;;;;1.10;0.97;;;20.70;99.90;;;;;;5089023;28;20196;-51
2022/05/30 05:45:00;;;;;;;0.57;0.57;;;21.00;99.90;;;;;;5091448;28;20200;-50
2022/05/30 05:47:27;;;;;;;0.73;0.73;;;20.90;99.90;;;;;;5089179;28;20205;-50
2022/05/30 05:49:54;;;;;;;1.07;0.97;;;21.00;99.90;;;;;;5089588;28;20205;-50
2022/05/30 05:52:25;;;;;;;2.23;1.83;;;20.60;99.90;;;;;;5086998;28;20220;-50
2022/05/30 05:54:54;;;;;;;0.77;0.77;;;20.20;99.90;;;;;;5089503;28;20876;-50
2022/05/30 05:57:22;;;;;;;1.87;0.90;;;20.60;99.90;;;;;;5084572;28;20262;-50
2022/05/30 05:59:49;;;;;;;1.07;0.70;;;20.00;99.90;;;;;;5078398;28;20239;-50
2022/05/30 06:02:18;;;;;;;1.20;1.03;;;20.10;99.90;;;;;;5091875;28;20193;-50
2022/05/30 06:04:46;;;;;;;0.83;0.83;;;20.00;99.90;;;;;;5091234;28;20612;-50
2022/05/30 06:07:13;;;;;;;1.13;1.13;;;20.30;99.90;;;;;;5092572;28;20737;-49
2022/05/30 06:09:40;;;;;;;0.80;0.80;;;20.70;99.90;;;;;;5087987;28;20211;-50
2022/05/30 06:12:08;;;;;;;0.90;0.90;;;20.80;99.90;;;;;;5082258;28;20289;-50
2022/05/30 06:14:36;;;;;;;2.00;1.27;;;21.30;99.90;;;;;;5078799;28;20217;-50
2022/05/30 06:17:04;;;;;;;2.50;0.90;;;21.70;99.90;;;;;;5081618;28;20635;-51
2022/05/30 06:19:33;;;;;;;1.63;0.80;;;21.70;99.90;;;;;;5078092;28;20328;-50
2022/05/30 06:22:00;;;;;;;0.93;0.93;;;21.30;99.90;;;;;;5071751;28;20227;-50
2022/05/30 06:24:27;;;;;;;1.20;1.20;;;20.90;99.90;;;;;;5071621;28;20239;-51
2022/05/30 06:26:54;;;;;;;0.90;0.90;;;21.10;99.90;;;;;;5071561;28;20288;-50
2022/05/30 06:29:21;;;;;;;1.20;1.10;;;21.70;99.90;;;;;;5081756;28;20192;-50
2022/05/30 06:31:48;;;;;;;1.57;0.77;;;21.50;99.90;;;;;;5081927;28;20666;-50
2022/05/30 06:34:15;;;;;;;1.43;0.97;;;21.00;99.90;;;;;;5078938;28;20259;-50
2022/05/30 06:36:44;;;;;;;0.97;0.97;;;21.50;99.90;;;;;;5081003;28;20607;-51
2022/05/30 06:39:11;;;;;;;1.67;1.57;;;21.50;99.90;;;;;;5073661;28;20250;-51
2022/05/30 06:41:38;;;;;;;1.10;1.00;;;21.50;99.90;;;;;;5080067;28;20690;-51
2022/05/30 06:44:07;;;;;;;1.00;1.00;;;22.40;99.90;;;;;;5082091;28;20193;-51
2022/05/30 06:46:36;;;;;;;2.50;1.17;;;22.80;99.90;;;;;;5076785;28;20267;-51
2022/05/30 06:49:03;;;;;;;0.90;0.90;;;22.20;99.90;;;;;;5079869;28;20286;-51
2022/05/30 06:51:32;;;;;;;2.87;1.00;;;22.90;99.90;;;;;;5084912;28;20227;-51
2022/05/30 06:54:00;;;;;;;1.50;1.40;;;23.70;99.90;;;;;;5082234;28;20274;-51
2022/05/30 06:56:29;;;;;;;1.10;1.10;;;23.10;99.90;;;;;;5073007;28;20659;-51
2022/05/30 06:58:57;;;;;;;1.30;1.20;;;23.30;99.10;;;;;;5076697;28;20201;-51
2022/05/30 07:01:27;;;;;;;1.23;1.23;;;23.70;99.30;;;;;;5072947;28;20225;-51
2022/05/30 07:03:54;;;;;;;1.57;1.23;;;23.70;98.40;;;;;;5075278;28;20654;-51
2022/05/30 07:06:23;;;;;;;1.40;1.03;;;23.00;99.50;;;;;;5090684;28;20197;-50
2022/05/30 07:08:50;;;;;;;2.67;1.77;;;21.60;99.90;;;;;;5083794;28;20565;-51
2022/05/30 07:11:21;;;;;;;1.30;1.30;;;21.40;99.90;;;;;;5083506;28;20220;-53
2022/05/30 07:13:49;;;;;;;1.03;0.93;;;21.50;99.90;;;;;;5074202;28;20193;-51
2022/05/30 07:16:17;;;;;;;1.70;1.70;;;22.20;99.50;;;;;;5081510;28;20204;-50
2022/05/30 07:18:44;;;;;;;1.60;1.13;;;21.00;99.60;;;;;;5088376;28;20196;-52
2022/05/30 07:21:13;;;;;;;1.70;1.20;;;20.50;99.90;;;;;;5078555;28;20226;-51
2022/05/30 07:23:40;;;;;;;1.60;1.50;;;21.10;98.90;;;;;;5086866;28;20291;-51
2022/05/30 07:26:09;;;;;;;1.70;1.03;;;21.50;99.80;;;;;;5090344;28;20269;-51
2022/05/30 07:28:38;;;;;;;1.27;1.27;;;21.80;99.70;;;;;;5085324;28;20200;-50
2022/05/30 07:31:06;;;;;;;1.97;1.83;;;22.30;99.00;;;;;;5090866;28;20597;-51
2022/05/30 07:33:35;;;;;;;1.57;1.00;;;21.60;99.90;;;;;;5089724;28;20306;-51
2022/05/30 07:36:05;;;;;;;2.77;1.57;;;22.50;98.90;;;;;;5091138;28;20216;-51
2022/05/30 07:38:32;;;;;;;0.93;0.93;;;22.00;99.60;;;;;;5090188;28;20200;-51
2022/05/30 07:40:59;;;;;;;1.10;1.10;;;21.20;99.40;;;;;;5090853;28;20217;-50
2022/05/30 07:43:26;;;;;;;1.30;1.30;;;21.60;98.90;;;;;;5086692;28;20201;-50
2022/05/30 07:45:54;;;;;;;0.90;0.90;;;22.00;99.00;;;;;;5088874;28;20257;-50
2022/05/30 07:48:22;;;;;;;1.03;1.03;;;22.10;98.70;;;;;;5090280;28;20201;-50
2022/05/30 07:50:49;;;;;;;2.07;1.33;;;21.10;99.60;;;;;;5091101;28;20216;-50
2022/05/30 07:53:16;;;;;;;2.13;2.00;;;20.60;99.90;;;;;;5090153;28;20270;-52
2022/05/30 07:55:43;;;;;;;1.63;1.53;;;20.90;99.90;;;;;;5090807;28;20216;-51
2022/05/30 07:58:11;;;;;;;1.97;1.83;;;21.70;99.90;;;;;;5090067;28;20196;-50
2022/05/30 08:00:38;;;;;;;1.87;1.70;;;21.40;99.70;;;;;;5088899;28;20240;-51
2022/05/30 08:03:11;;;;;;;1.70;1.60;;;21.30;98.50;;;;;;5090136;28;20205;-50
2022/05/30 08:05:39;;;;;;;1.17;1.17;;;21.60;99.60;;;;;;5091082;28;20872;-50
2022/05/30 08:08:06;;;;;;;2.27;1.50;;;21.60;99.90;;;;;;5091747;28;20281;-50
2022/05/30 08:10:33;;;;;;;1.90;1.57;;;22.20;99.90;;;;;;5086051;28;20751;-51
2022/05/30 08:13:00;;;;;;;1.70;1.60;;;21.70;99.30;;;;;;5091451;28;20261;-50
2022/05/30 08:15:27;;;;;;;1.33;1.33;;;22.40;99.40;;;;;;5094633;28;20212;-50
2022/05/30 08:17:55;;;;;;;1.40;1.30;;;22.80;97.70;;;;;;5091781;28;20229;-51
2022/05/30 08:20:26;;;;;;;1.57;1.47;;;23.10;97.50;;;;;;5092960;28;20224;-51
2022/05/30 08:22:53;;;;;;;1.43;1.43;;;23.30;97.80;;;;;;5081556;28;20217;-50
2022/05/30 08:25:21;;;;;;;1.07;1.03;;;22.60;97.70;;;;;;5079240;28;20701;-50
2022/05/30 08:27:49;;;;;;;1.00;1.00;;;22.60;98.40;;;;;;5074011;28;20202;-50
2022/05/30 08:30:20;;;;;;;4.00;1.43;;;22.00;97.90;;;;;;5080047;28;20216;-50
2022/05/30 08:32:48;;;;;;;3.27;1.13;;;21.90;97.50;;;;;;5089577;28;20275;-51
2022/05/30 08:35:18;;;;;;;1.10;1.10;;;21.10;98.90;;;;;;5091295;28;20220;-51
2022/05/30 08:37:47;;;;;;;1.60;0.93;;;21.30;97.60;;;;;;5091748;28;20659;-51
2022/05/30 08:43:17;;;;;;;1.03;0.93;;;21.50;98.10;;;;;;5074283;28;20254;-51
2022/05/30 08:45:47;;;;;;;1.90;0.90;;;21.30;97.00;;;;;;5074983;28;20197;-51
2022/05/30 08:48:16;;;;;;;0.80;0.80;;;20.80;98.00;;;;;;5075891;28;20204;-50
2022/05/30 08:50:52;;;;;;;1.13;1.03;;;20.60;97.20;;;;;;5082453;28;20267;-51
2022/05/30 08:54:00;;;;;;;1.70;0.90;;;20.40;99.30;;;;;;5073491;28;20254;-51
2022/05/30 08:56:31;;;;;;;2.90;0.80;;;21.30;95.80;;;;;;5090420;28;20258;-51
2022/05/30 08:59:16;;;;;;;2.60;0.90;;;21.60;95.70;;;;;;5089615;28;20250;-50
2022/05/30 09:01:48;;;;;;;1.90;1.00;;;21.10;95.60;;;;;;5079140;28;20715;-50
2022/05/30 09:04:23;;;;;;;0.93;0.80;;;20.90;97.00;;;;;;5078138;28;20205;-51
2022/05/30 09:06:58;;;;;;;2.40;0.90;;;21.10;95.30;;;;;;5072803;28;20674;-52
2022/05/30 09:09:36;;;;;;;1.97;1.20;;;21.70;95.00;;;;;;5073134;28;20285;-51
2022/05/30 09:12:10;;;;;;;2.33;1.30;;;21.90;96.40;;;;;;5091307;28;20623;-52
2022/05/30 09:14:42;;;;;;;0.70;0.70;;;21.20;94.90;;;;;;5093391;28;20793;-52
2022/05/30 09:17:14;;;;;;;1.53;0.77;;;22.00;94.40;;;;;;5091155;28;20193;-52
2022/05/30 09:19:41;;;;;;;0.97;0.97;;;22.20;95.50;;;;;;5091414;28;20257;-51
2022/05/30 09:22:10;;;;;;;0.90;0.90;;;22.10;96.20;;;;;;5092525;28;20197;-52
2022/05/30 09:24:41;;;;;;;0.80;0.80;;;22.20;95.30;;;;;;5091115;28;20204;-52
2022/05/30 09:27:08;;;;;;;1.63;1.53;;;22.70;94.60;;;;;;5093148;28;20237;-51
2022/05/30 09:29:43;;;;;;;1.63;1.20;;;22.60;94.60;;;;;;5092145;28;20196;-51
2022/05/30 09:32:15;;;;;;;1.73;1.00;;;22.50;96.00;;;;;;5083831;28;20196;-51
2022/05/30 09:34:45;;;;;;;1.30;1.20;;;22.30;96.10;;;;;;5093241;28;20293;-53
2022/05/30 09:37:26;;;;;;;0.90;0.90;;;21.90;97.70;;;;;;5092897;28;20682;-52
2022/05/30 09:39:54;;;;;;;1.20;0.87;;;22.60;95.10;;;;;;5090335;28;20270;-51
2022/05/30 09:42:30;;;;;;;1.17;0.90;;;21.80;93.90;;;;;;5091824;28;20196;-52
2022/05/30 09:45:07;;;;;;;1.10;1.00;;;21.60;94.80;;;;;;5092935;28;20199;-52
2022/05/30 09:47:35;;;;;;;1.23;1.07;;;22.30;97.60;;;;;;5088079;28;20192;-51
2022/05/30 09:50:13;;;;;;;2.17;1.07;;;22.90;93.80;;;;;;5082851;28;20209;-51
2022/05/30 09:52:41;;;;;;;2.50;1.20;;;23.60;94.30;;;;;;5072761;28;20197;-52
2022/05/30 09:55:34;;;;;;;1.43;0.90;;;23.80;94.20;;;;;;5085357;28;20224;-51
2022/05/30 09:58:02;;;;;;;0.83;0.83;;;23.40;93.40;;;;;;5085154;28;20200;-51
2022/05/30 10:00:38;;;;;;;1.23;0.80;;;24.10;91.30;;;;;;5078199;28;20714;-51
2022/05/30 10:03:11;;;;;;;1.83;0.70;;;24.30;91.30;;;;;;5091903;28;20558;-51
2022/05/30 10:05:40;;;;;;;1.80;1.10;;;22.70;86.80;;;;;;5092510;28;20241;-50
2022/05/30 10:08:20;;;;;;;1.30;1.30;;;21.60;93.40;;;;;;5091703;28;20748;-51
2022/05/30 10:10:52;;;;;;;1.17;1.10;;;20.80;92.80;;;;;;5089115;28;20702;-50
2022/05/30 10:13:34;;;;;;;2.30;1.20;;;20.30;94.70;;;;;;5072174;28;20894;-50
2022/05/30 10:16:03;;;;;;;1.00;1.00;;;19.90;94.20;;;;;;5072201;28;20221;-50
2022/05/30 10:18:34;;;;;;;1.70;1.60;;;19.70;95.00;;;;;;5091975;28;20196;-50
2022/05/30 10:21:12;;;;;;;0.90;0.90;;;19.50;92.70;;;;;;5091979;28;20855;-51
2022/05/30 10:29:42;;;;;;;1.00;1.00;;;19.40;95.70;;;;;;5089470;28;20215;-51
2022/05/30 10:32:18;;;;;;;1.63;1.50;;;19.00;95.70;;;;;;5091043;28;20253;-50
2022/05/30 10:35:16;;;;;;;1.50;1.50;;;18.80;95.80;;;;;;5091131;28;20200;-51
2022/05/30 10:38:06;;;;;;;1.83;1.10;;;19.60;97.00;;;;;;5090307;28;20196;-50
2022/05/30 10:40:50;;;;;;;2.80;0.80;;;20.10;93.00;;;;;;5086931;28;20212;-51
2022/05/30 10:43:24;;;;;;;1.33;1.17;;;20.30;93.00;;;;;;5091528;28;20210;-51
2022/05/30 10:45:57;;;;;;;1.50;1.20;;;20.80;93.80;;;;;;5091974;28;20188;-50
2022/05/30 10:48:27;;;;;;;1.63;1.53;;;21.30;95.10;;;;;;5089427;28;20208;-50
2022/05/30 10:50:59;;;;;;;1.70;1.60;;;21.10;94.20;;;;;;5090825;28;20277;-51
2022/05/30 10:53:33;;;;;;;0.87;0.80;;;21.30;92.60;;;;;;5091670;28;20189;-51
2022/05/30 10:56:04;;;;;;;1.87;0.90;;;22.00;94.70;;;;;;5091622;28;20212;-50
2022/05/30 10:58:38;;;;;;;0.77;0.60;;;21.90;93.50;;;;;;5089920;28;20200;-50
2022/05/30 11:01:10;;;;;;;2.33;0.80;;;21.20;92.90;;;;;;5090219;28;20273;-51
2022/05/30 11:03:44;;;;;;;1.63;0.80;;;20.80;94.10;;;;;;5091465;28;20653;-50
2022/05/30 11:06:23;;;;;;;1.33;0.60;;;20.20;94.00;;;;;;5071378;28;20255;-51
2022/05/30 11:09:14;;;;;;;1.20;1.10;;;20.00;94.30;;;;;;5088944;28;20593;-51
2022/05/30 11:11:46;;;;;;;1.07;1.00;;;19.90;94.40;;;;;;5090774;28;20212;-50
2022/05/30 11:14:21;;;;;;;0.97;0.83;;;19.50;96.10;;;;;;5083695;28;20193;-50
2022/05/30 11:16:52;;;;;;;1.20;1.10;;;19.90;95.30;;;;;;5090819;28;20223;-50
2022/05/30 11:19:24;;;;;;;0.47;0.47;;;19.90;95.60;;;;;;5086378;28;20197;-51
2022/05/30 11:22:00;;;;;;;0.70;0.70;;;20.00;96.30;;;;;;5088474;28;20224;-51
2022/05/30 11:24:28;;;;;;;1.97;1.10;;;20.50;94.10;;;;;;5079003;28;20197;-50
2022/05/30 11:27:14;;;;;;;0.70;0.70;;;21.00;92.50;;;;;;5082524;28;20197;-51
2022/05/30 11:30:03;;;;;;;0.90;0.80;;;20.80;93.50;;;;;;5090459;28;20271;-50
2022/05/30 11:33:12;;;;;;;0.80;0.80;;;20.50;94.10;;;;;;5077916;28;20262;-51
2022/05/30 11:35:48;;;;;;;1.90;0.73;;;20.20;95.20;;;;;;5035962;28;20236;-50
2022/05/30 11:38:50;;;;;;;0.93;0.70;;;20.60;95.00;;;;;;5072927;28;20253;-50
2022/05/30 11:41:33;;;;;;;1.17;1.17;;;20.80;95.50;;;;;;5086822;28;20216;-50
2022/05/30 11:44:22;;;;;;;0.80;0.80;;;20.80;93.20;;;;;;5074500;28;20200;-50
2022/05/30 11:46:58;;;;;;;0.77;0.77;;;20.90;94.90;;;;;;5089060;28;20193;-50
2022/05/30 11:49:32;;;;;;;1.40;1.07;;;20.60;92.60;;;;;;5077227;28;20274;-50
2022/05/30 11:52:12;;;;;;;1.20;1.07;;;20.60;95.40;;;;;;5075542;28;20277;-51
2022/05/30 11:54:54;;;;;;;2.03;1.10;;;20.60;94.40;;;;;;5091860;28;20232;-50
2022/05/30 11:57:29;;;;;;;0.70;0.57;;;20.30;92.20;;;;;;5090731;28;20222;-51
2022/05/30 12:00:10;;;;;;;1.63;0.70;;;20.10;96.10;;;;;;5087158;28;20910;-51
2022/05/30 12:02:58;;;;;;;1.20;0.98;;;20.00;96.60;;;;;;5080266;28;20436;-51
2022/05/30 12:06:11;;;;;;;0.77;0.77;;;19.80;94.10;;;;;;5093536;28;20197;-50
2022/05/30 12:09:19;;;;;;;1.73;0.70;;;19.80;92.80;;;;;;5084694;28;20667;-50
2022/05/30 12:12:18;;;;;;;2.03;0.57;;;19.90;92.80;;;;;;5085740;28;20224;-50
2022/05/30 12:15:18;;;;;;;1.03;0.93;;;19.90;96.60;;;;;;5075936;28;20201;-51
2022/05/30 12:24:22;;;;;;;0.70;0.70;;;19.80;94.10;;;;;;5091719;28;20739;-50
2022/05/30 12:27:01;;;;;;;2.43;0.60;;;19.60;94.70;;;;;;5090624;28;20296;-51
2022/05/30 12:29:50;;;;;;;0.83;0.60;;;19.50;90.10;;;;;;5093784;28;20204;-50
2022/05/30 12:32:38;;;;;;;1.10;0.60;;;19.60;91.30;;;;;;5094302;28;20253;-51
2022/05/30 12:35:23;;;;;;;0.60;0.60;;;19.60;92.90;;;;;;5092492;28;20197;-50
2022/05/30 12:37:52;;;;;;;1.90;0.40;;;19.70;88.90;;;;;;5090992;28;20360;-51
2022/05/30 12:40:36;;;;;;;1.00;0.90;;;19.70;90.60;;;;;;5092859;28;20261;-51
2022/05/30 12:43:35;;;;;;;0.30;0.30;;;19.50;93.40;;;;;;5091983;28;20200;-50
2022/05/30 12:46:21;;;;;;;5.53;1.00;;;19.40;92.00;;;;;;5092015;28;20278;-51
2022/05/30 12:49:02;;;;;;;0.83;0.40;;;19.50;91.90;;;;;;5091570;28;20201;-51
2022/05/30 12:51:57;;;;;;;0.67;0.67;;;19.80;95.00;;;;;;5086334;28;20221;-51
2022/05/30 12:54:37;;;;;;;0.43;0.43;;;19.70;92.10;;;;;;5083945;28;20230;-51
2022/05/30 12:57:26;;;;;;;2.83;0.60;;;19.70;89.70;;;;;;5082935;28;20767;-51
2022/05/30 13:00:06;;;;;;;1.33;0.60;;;19.70;92.70;;;;;;5088376;28;20199;-51
2022/05/30 13:03:11;;;;;;;0.50;0.50;;;19.50;90.50;;;;;;5089634;28;20664;-51
2022/05/30 13:05:58;;;;;;;0.50;0.50;;;19.60;89.00;;;;;;5077169;28;20260;-52
2022/05/30 13:09:04;;;;;;;0.73;0.50;;;19.60;90.00;;;;;;5073253;28;20719;-51
2022/05/30 13:12:07;;;;;;;0.70;0.50;;;19.60;90.50;;;;;;5083457;28;20254;-51
2022/05/30 13:15:06;;;;;;;1.77;0.50;;;19.50;88.10;;;;;;5087330;28;20718;-52
2022/05/30 13:17:46;;;;;;;0.93;0.60;;;19.40;91.60;;;;;;5086306;28;20292;-51
2022/05/30 13:20:15;;;;;;;0.50;0.47;;;19.30;89.80;;;;;;5073130;28;20234;-51
2022/05/30 13:22:46;;;;;;;2.17;0.97;;;19.30;92.40;;;;;;5072508;28;20189;-51
2022/05/30 13:25:15;;;;;;;0.77;0.73;;;19.40;91.60;;;;;;5072419;28;20205;-51
2022/05/30 13:27:45;;;;;;;1.30;0.40;;;19.40;92.30;;;;;;5072949;28;20197;-51
2022/05/30 13:30:19;;;;;;;0.80;0.50;;;19.50;91.90;;;;;;5081611;28;20274;-52
2022/05/30 13:32:46;;;;;;;0.40;0.40;;;19.60;86.00;;;;;;5072084;28;20197;-51
2022/05/30 13:35:14;;;;;;;0.50;0.47;;;19.50;83.60;;;;;;5080797;28;20246;-50
2022/05/30 13:37:45;;;;;;;2.07;1.03;;;19.40;91.00;;;;;;5078126;28;20228;-51
2022/05/30 13:40:16;;;;;;;0.50;0.50;;;19.60;88.40;;;;;;5076730;28;20710;-51